Terminal Aerodrome Forecast
Issued by NWS Huntsville, AL

Home | Current Version | Previous Version | Text Only | Print | Product List | Glossary On
Versions: 1 2 3 4 5 6 7 8 9 10 11 12 13 14 15 16
000
FTUS44 KHUN 240520
TAFHSV
TAF
KHSV 240520Z 2406/2506 VRB04KT P6SM FEW250
     FM241500 17005KT P6SM SCT040 SCT250
     FM250100 VRB04KT P6SM SCT040=

USA.gov is the U.S. government's official web portal to all federal, state and local government web resources and services.